Time;durP1;ratioP1;P1;durP2;ratioP2;P2;SDS_P1;SDS_P2;PMS_P1;PMS_P2;Temp;Humidity;BMP_temperature;BMP_pressure;BME280_temperature;BME280_humidity;BME280_pressure;Samples;Min_cycle;Max_cycle;Signal;HPM_P1;HPM_P2
2022/12/25 00:00:49;;;;;;;;;1.00;1.00;;;;;21.56;41.53;101152.13;5034695;28;45341;-68
2022/12/25 00:03:15;;;;;;;;;0.33;0.33;;;;;21.56;41.62;101157.41;5045606;28;45474;-68
2022/12/25 00:05:41;;;;;;;;;0.00;0.00;;;;;21.56;41.43;101164.53;5054809;28;45396;-68
2022/12/25 00:08:06;;;;;;;;;1.00;1.00;;;;;21.57;41.42;101167.00;5054860;28;45332;-68
2022/12/25 00:10:32;;;;;;;;;1.33;1.00;;;;;21.57;41.19;101164.34;5054938;28;45429;-68
2022/12/25 00:12:57;;;;;;;;;2.00;1.00;;;;;21.56;41.14;101156.59;5054668;28;47094;-68
2022/12/25 00:15:22;;;;;;;;;1.00;0.00;;;;;21.57;41.67;101164.34;5054401;28;45344;-68
2022/12/25 00:17:48;;;;;;;;;0.00;0.00;;;;;21.57;41.18;101158.25;5054895;28;45358;-68
2022/12/25 00:20:13;;;;;;;;;0.33;0.00;;;;;21.52;41.67;101135.72;5054873;28;45357;-68
2022/12/25 00:22:38;;;;;;;;;0.00;0.00;;;;;21.57;41.66;101161.69;5054487;28;46156;-69
2022/12/25 00:25:04;;;;;;;;;1.00;1.00;;;;;21.56;41.67;101170.66;5054643;28;45406;-68
2022/12/25 00:27:32;;;;;;;;;1.00;0.00;;;;;21.57;41.17;101180.22;5054656;28;45488;-68
2022/12/25 00:29:59;;;;;;;;;1.00;1.00;;;;;21.57;41.58;101180.22;5054426;28;45348;-68
2022/12/25 00:32:24;;;;;;;;;1.33;0.33;;;;;21.59;41.31;101177.44;5054378;28;46348;-69
2022/12/25 00:34:49;;;;;;;;;0.33;0.33;;;;;21.59;41.57;101174.78;5054552;28;45293;-68
2022/12/25 00:37:15;;;;;;;;;1.00;1.00;;;;;21.60;41.33;101171.94;5054650;28;45429;-68
2022/12/25 00:39:40;;;;;;;;;1.00;1.00;;;;;21.59;41.35;101165.03;5053334;28;45304;-68
2022/12/25 00:42:20;;;;;;;;;2.00;0.00;;;;;21.58;41.56;101150.13;5054256;28;46452;-68
2022/12/25 00:44:47;;;;;;;;;1.00;1.00;;;;;21.59;41.18;101145.66;5053974;28;45353;-68
2022/12/25 00:47:13;;;;;;;;;1.00;1.00;;;;;21.56;41.11;101146.00;5054472;28;45436;-68
2022/12/25 00:49:38;;;;;;;;;1.33;1.00;;;;;21.58;41.25;101146.66;5054379;28;45317;-69
2022/12/25 00:52:04;;;;;;;;;0.00;0.00;;;;;21.61;41.23;101151.59;5054161;28;45467;-68
2022/12/25 00:54:29;;;;;;;;;1.00;1.00;;;;;21.60;41.24;101156.06;5049026;28;45358;-69
2022/12/25 00:56:54;;;;;;;;;1.00;1.00;;;;;21.61;41.59;101148.97;5034174;28;45380;-68
2022/12/25 00:59:20;;;;;;;;;2.00;0.67;;;;;21.61;41.59;101154.25;5033884;28;45424;-68
2022/12/25 01:01:45;;;;;;;;;0.00;0.00;;;;;21.61;41.82;101159.56;5033801;28;46766;-68
2022/12/25 01:04:11;;;;;;;;;1.67;0.00;;;;;21.51;41.48;101150.00;5052710;27;45334;-68
2022/12/25 01:06:37;;;;;;;;;1.00;1.00;;;;;21.61;41.75;101159.56;5054284;28;45278;-68
2022/12/25 01:11:47;;;;;;;;;0.00;0.00;;;;;21.59;41.52;101143.84;5053652;28;45294;-68
2022/12/25 01:14:12;;;;;;;;;1.67;1.67;;;;;21.57;41.23;101152.94;5053989;28;45391;-68
2022/12/25 01:16:38;;;;;;;;;0.33;0.00;;;;;21.49;41.73;101136.06;5054031;28;45366;-68
2022/12/25 01:19:04;;;;;;;;;0.67;0.67;;;;;21.59;41.59;101157.09;5054161;28;45259;-68
2022/12/25 01:21:29;;;;;;;;;1.00;1.00;;;;;21.61;41.35;101157.72;5036962;27;47928;-68
2022/12/25 01:23:55;;;;;;;;;0.00;0.00;;;;;21.61;41.55;101151.59;5053860;28;45358;-68
2022/12/25 01:26:24;;;;;;;;;1.00;1.00;;;;;21.61;41.19;101156.91;5053644;28;45290;-69
2022/12/25 01:28:50;;;;;;;;;1.67;1.00;;;;;21.59;41.79;101143.84;5053887;28;45378;-68
2022/12/25 01:31:18;;;;;;;;;0.00;0.00;;;;;21.60;41.28;101134.06;5053860;28;46375;-69
2022/12/25 01:33:44;;;;;;;;;0.33;0.33;;;;;21.60;41.49;101134.06;5053721;28;45365;-68
2022/12/25 01:36:15;;;;;;;;;0.00;0.00;;;;;21.58;41.68;101134.22;5053777;28;45281;-68
2022/12/25 01:38:41;;;;;;;;;1.00;1.00;;;;;21.60;41.13;101150.78;5053816;28;45331;-68
2022/12/25 01:41:06;;;;;;;;;1.00;1.00;;;;;21.49;41.40;101116.72;5053212;28;46212;-68
2022/12/25 01:43:33;;;;;;;;;1.00;1.00;;;;;21.59;41.10;101127.13;5053720;28;45229;-68
2022/12/25 01:45:58;;;;;;;;;1.00;1.00;;;;;21.59;41.49;101121.84;5053736;28;45224;-69
2022/12/25 01:48:31;;;;;;;;;3.00;2.00;;;;;21.59;41.11;101127.13;5053589;28;45192;-68
2022/12/25 01:51:03;;;;;;;;;1.67;1.67;;;;;21.59;41.80;101116.53;5053175;28;45427;-68
2022/12/25 01:53:28;;;;;;;;;1.00;1.00;;;;;21.57;41.83;101119.34;5053483;28;45324;-69
2022/12/25 01:56:06;;;;;;;;;1.00;1.00;;;;;21.58;41.32;101128.94;5036284;28;45691;-68
2022/12/25 01:58:33;;;;;;;;;1.33;1.00;;;;;21.56;41.11;101132.75;5033515;28;45460;-68
2022/12/25 02:00:58;;;;;;;;;1.00;1.00;;;;;21.58;41.53;101157.22;5033285;28;46373;-68
2022/12/25 02:03:24;;;;;;;;;3.00;1.00;;;;;21.57;41.42;101159.06;5045184;28;45364;-68
2022/12/25 02:05:50;;;;;;;;;1.00;1.00;;;;;21.58;41.72;101157.22;5053512;28;45379;-68
2022/12/25 02:08:19;;;;;;;;;1.00;1.00;;;;;21.58;41.29;101159.88;5053382;28;45315;-68
2022/12/25 02:10:45;;;;;;;;;0.33;0.00;;;;;21.57;41.50;101145.81;5051992;28;47599;-68
2022/12/25 02:13:16;;;;;;;;;2.00;0.33;;;;;21.58;41.10;101138.69;5053290;28;45220;-68
2022/12/25 02:15:48;;;;;;;;;0.67;0.00;;;;;21.58;41.26;101136.88;5053341;28;45412;-68
2022/12/25 02:18:22;;;;;;;;;1.00;1.00;;;;;21.58;41.49;101136.06;5053375;28;45327;-68
2022/12/25 02:20:58;;;;;;;;;0.33;0.33;;;;;21.58;41.51;101125.47;5052902;28;47209;-68
2022/12/25 02:23:33;;;;;;;;;0.33;0.00;;;;;21.57;41.29;101131.78;5053076;28;45400;-68
2022/12/25 02:26:29;;;;;;;;;0.00;0.00;;;;;21.58;41.50;101141.34;5052825;28;45248;-68
2022/12/25 02:29:20;;;;;;;;;3.00;0.00;;;;;21.57;41.37;101129.13;5053033;28;45520;-69
2022/12/25 02:32:12;;;;;;;;;0.67;0.67;;;;;21.58;41.13;101115.69;4951625;28;46079;-69
2022/12/25 02:34:50;;;;;;;;;3.33;1.33;;;;;21.57;41.14;101100.00;4951864;28;45439;-68
2022/12/25 02:37:27;;;;;;;;;1.00;1.00;;;;;21.57;41.38;101094.72;4951802;28;45515;-69
2022/12/25 02:40:26;;;;;;;;;1.33;0.33;;;;;21.58;41.32;101068.03;4951617;28;45464;-69
2022/12/25 03:08:24;;;;;;;;;1.00;1.00;;;;;21.53;41.55;101102.16;4964895;28;45500;-68
2022/12/25 03:13:48;;;;;;;;;1.00;1.00;;;;;21.57;41.73;101116.69;4995762;28;45312;-69
2022/12/25 03:18:58;;;;;;;;;0.00;0.00;;;;;21.58;41.29;101105.13;4995584;28;45896;-69
2022/12/25 03:26:55;;;;;;;;;1.00;1.00;;;;;21.58;41.48;101101.63;4995357;28;45329;-69
2022/12/25 03:32:40;;;;;;;;;1.00;1.00;;;;;21.51;41.16;101090.91;4995517;28;45317;-69
2022/12/25 03:35:24;;;;;;;;;1.00;1.00;;;;;21.57;41.19;101100.81;4995419;28;45337;-69
2022/12/25 03:44:44;;;;;;;;;1.00;1.00;;;;;21.55;41.65;101101.97;4976627;28;45412;-69
2022/12/25 04:37:17;;;;;;;;;0.67;0.67;;;;;21.49;41.57;100971.13;4972909;28;45448;-69
2022/12/25 04:39:42;;;;;;;;;1.67;1.67;;;;;21.56;41.58;100973.91;4972763;28;45335;-69
2022/12/25 04:42:07;;;;;;;;;1.00;1.00;;;;;21.55;40.95;100981.00;4973091;28;45369;-68
2022/12/25 04:44:33;;;;;;;;;0.00;0.00;;;;;21.46;41.51;100967.00;4972578;28;48964;-69
2022/12/25 04:46:58;;;;;;;;;0.00;0.00;;;;;21.55;41.53;100981.00;4972621;28;46364;-69
2022/12/25 04:49:23;;;;;;;;;1.00;1.00;;;;;21.50;41.08;100959.53;4972633;28;45377;-68
2022/12/25 04:51:48;;;;;;;;;0.33;0.33;;;;;21.57;41.49;100962.31;4972774;28;45534;-67
2022/12/25 04:54:14;;;;;;;;;0.33;0.33;;;;;21.55;41.54;100954.53;4975581;28;46104;-69
2022/12/25 04:56:39;;;;;;;;;1.00;1.00;;;;;21.57;41.41;100963.13;4992132;28;45364;-69
2022/12/25 04:59:05;;;;;;;;;1.00;0.00;;;;;21.58;41.10;100958.66;4992309;28;45438;-69
2022/12/25 05:01:30;;;;;;;;;0.67;0.00;;;;;21.60;41.51;100946.06;4992187;28;45511;-69
2022/12/25 05:03:55;;;;;;;;;2.00;0.00;;;;;21.58;41.09;100937.47;5008086;28;45392;-69
2022/12/25 05:06:21;;;;;;;;;1.00;0.67;;;;;21.57;41.62;100939.31;5011414;28;45390;-69
2022/12/25 05:08:46;;;;;;;;;0.33;0.33;;;;;21.59;41.11;100929.38;5012112;28;45402;-69
2022/12/25 05:11:13;;;;;;;;;0.00;0.00;;;;;21.60;41.66;100916.94;5021506;28;45365;-69
2022/12/25 05:13:39;;;;;;;;;0.00;0.00;;;;;21.60;41.17;100931.00;5033863;28;46064;-69
2022/12/25 05:16:19;;;;;;;;;2.00;1.00;;;;;21.60;41.13;100940.78;5033895;28;45336;-69
2022/12/25 05:18:47;;;;;;;;;0.00;0.00;;;;;21.59;41.48;100945.25;5033830;28;45417;-69
2022/12/25 05:21:12;;;;;;;;;1.00;1.00;;;;;21.60;41.55;100938.97;5033928;28;45448;-68
2022/12/25 05:23:38;;;;;;;;;0.00;0.00;;;;;21.59;41.20;100942.63;5033476;28;46079;-67
2022/12/25 05:26:07;;;;;;;;;1.00;1.00;;;;;21.59;41.55;100929.38;5033150;28;45316;-69
2022/12/25 05:28:35;;;;;;;;;1.00;1.00;;;;;21.59;41.42;100932.03;5032697;28;45394;-69
2022/12/25 05:31:01;;;;;;;;;0.00;0.00;;;;;21.59;41.20;100925.91;5033808;28;45347;-69
2022/12/25 05:33:26;;;;;;;;;2.00;0.67;;;;;21.58;41.53;100917.13;5033201;28;46282;-68
2022/12/25 05:35:51;;;;;;;;;0.00;0.00;;;;;21.50;41.19;100901.28;5033619;28;45422;-69
2022/12/25 05:38:17;;;;;;;;;0.00;0.00;;;;;21.58;41.59;100922.44;5033948;28;45373;-69
2022/12/25 05:40:42;;;;;;;;;0.00;0.00;;;;;21.58;41.34;100919.78;5033649;28;45584;-69
2022/12/25 05:43:08;;;;;;;;;0.00;0.00;;;;;21.54;41.52;100909.72;5033418;28;46312;-69
2022/12/25 05:45:34;;;;;;;;;0.67;0.67;;;;;21.56;41.34;100913.84;5033564;28;45380;-69
2022/12/25 05:47:59;;;;;;;;;0.00;0.00;;;;;21.57;41.46;100931.34;5033278;28;45293;-68
2022/12/25 05:50:24;;;;;;;;;1.00;1.00;;;;;21.57;41.20;100936.66;5033692;28;45297;-69
2022/12/25 05:52:50;;;;;;;;;0.33;0.33;;;;;21.58;41.17;100937.47;5033464;28;45322;-69
2022/12/25 05:55:15;;;;;;;;;0.00;0.00;;;;;21.49;41.31;100911.06;5021982;28;45321;-69
2022/12/25 05:57:40;;;;;;;;;0.00;0.00;;;;;21.57;41.23;100909.38;5028955;28;45278;-68
2022/12/25 06:00:06;;;;;;;;;0.67;0.00;;;;;21.57;41.49;100914.66;5012296;28;45556;-69
2022/12/25 06:02:34;;;;;;;;;1.00;1.00;;;;;21.57;41.22;100909.38;5029465;28;46299;-69
2022/12/25 06:04:59;;;;;;;;;0.00;0.00;;;;;21.57;41.14;100902.22;5053413;28;45453;-69
2022/12/25 06:07:24;;;;;;;;;0.00;0.00;;;;;21.57;41.06;100906.72;5053391;28;45367;-68
2022/12/25 06:09:50;;;;;;;;;0.33;0.33;;;;;21.57;41.23;100918.13;5053550;28;45447;-68
2022/12/25 06:12:15;;;;;;;;;0.00;0.00;;;;;21.56;41.51;100927.06;5053169;28;46035;-69
2022/12/25 06:14:40;;;;;;;;;0.00;0.00;;;;;21.56;41.76;100928.91;5053253;28;45393;-69
2022/12/25 06:17:06;;;;;;;;;0.00;0.00;;;;;21.56;41.27;100926.25;5053094;28;45429;-68
2022/12/25 06:19:31;;;;;;;;;0.00;0.00;;;;;21.56;41.19;100942.97;5053361;28;45310;-69
2022/12/25 06:21:56;;;;;;;;;1.00;1.00;;;;;21.57;41.12;100935.84;5053084;28;46169;-68
2022/12/25 06:24:22;;;;;;;;;1.00;1.00;;;;;21.57;41.20;100925.25;5053009;28;45421;-69
2022/12/25 06:26:48;;;;;;;;;0.00;0.00;;;;;21.56;41.23;100918.31;5053162;28;45419;-69
2022/12/25 06:29:14;;;;;;;;;0.00;0.00;;;;;21.55;41.42;100920.13;5053350;28;45371;-69
2022/12/25 06:31:39;;;;;;;;;1.67;1.00;;;;;21.56;41.33;100936.84;5052573;28;46146;-69
2022/12/25 06:34:04;;;;;;;;;1.00;1.00;;;;;21.54;41.50;100931.72;5052971;28;45334;-69
2022/12/25 06:36:29;;;;;;;;;0.00;0.00;;;;;21.52;41.57;100915.16;5053093;28;45413;-69
2022/12/25 06:38:55;;;;;;;;;0.00;0.00;;;;;21.48;41.46;100896.19;5053110;28;45380;-69
2022/12/25 06:41:25;;;;;;;;;0.00;0.00;;;;;21.57;41.00;100906.72;5052970;28;45386;-69
2022/12/25 06:43:54;;;;;;;;;0.00;0.00;;;;;21.57;41.30;100894.28;5052894;28;45315;-69
2022/12/25 06:46:21;;;;;;;;;0.00;0.00;;;;;21.57;41.18;100891.66;5052419;28;45521;-69
2022/12/25 06:48:49;;;;;;;;;0.00;0.00;;;;;21.58;41.22;100895.94;5052377;28;45607;-69
2022/12/25 06:51:17;;;;;;;;;0.33;0.33;;;;;21.57;41.08;100902.22;5052659;28;45481;-69
2022/12/25 06:53:42;;;;;;;;;0.00;0.00;;;;;21.58;41.64;100906.53;5052688;28;45399;-69
2022/12/25 06:56:14;;;;;;;;;0.00;0.00;;;;;21.58;41.46;100892.47;5033967;28;45396;-69
2022/12/25 06:58:42;;;;;;;;;0.00;0.00;;;;;21.58;41.18;100873.94;5032611;28;45319;-68
2022/12/25 07:01:13;;;;;;;;;0.00;0.00;;;;;21.58;41.10;100866.81;5031879;28;46100;-69
2022/12/25 07:03:41;;;;;;;;;1.00;1.00;;;;;21.59;41.08;100875.59;5046509;27;45371;-69
2022/12/25 07:06:06;;;;;;;;;1.00;1.00;;;;;21.54;41.06;100854.97;5034516;28;45281;-68
2022/12/25 07:08:32;;;;;;;;;3.00;1.00;;;;;21.60;41.14;100842.81;5052450;28;45318;-69
2022/12/25 07:10:57;;;;;;;;;0.33;0.33;;;;;21.54;41.40;100827.66;5052303;28;46093;-69
2022/12/25 07:13:22;;;;;;;;;0.00;0.00;;;;;21.60;41.10;100864.00;5052586;28;45374;-69
2022/12/25 07:15:55;;;;;;;;;0.00;0.00;;;;;21.60;41.65;100878.06;5052136;28;45365;-69
2022/12/25 07:18:20;;;;;;;;;0.00;0.00;;;;;21.60;41.09;100887.81;5052426;28;45451;-69
2022/12/25 07:20:45;;;;;;;;;0.00;0.00;;;;;21.60;41.60;100886.00;5052297;28;46114;-69
2022/12/25 07:23:11;;;;;;;;;0.00;0.00;;;;;21.60;41.38;100893.94;5052007;28;47077;-69
2022/12/25 07:25:36;;;;;;;;;0.00;0.00;;;;;21.55;40.96;100891.00;5052342;28;45316;-69
2022/12/25 07:28:01;;;;;;;;;0.00;0.00;;;;;21.50;41.51;100888.06;5052326;28;45380;-69
2022/12/25 07:30:27;;;;;;;;;0.00;0.00;;;;;21.50;41.38;100880.13;5051842;28;46165;-68
2022/12/25 07:32:53;;;;;;;;;1.00;1.00;;;;;21.60;41.52;100890.47;5052194;28;45310;-68
2022/12/25 07:35:18;;;;;;;;;0.67;0.67;;;;;21.60;41.11;100877.22;5052106;28;45301;-69
2022/12/25 07:37:43;;;;;;;;;0.00;0.00;;;;;21.60;41.16;100869.28;5052268;28;45416;-68
2022/12/25 07:40:09;;;;;;;;;0.00;0.00;;;;;21.61;41.18;100870.94;5051902;28;47058;-69
2022/12/25 07:42:34;;;;;;;;;2.00;0.00;;;;;21.60;41.14;100885.16;5052141;28;45340;-69
2022/12/25 07:45:00;;;;;;;;;0.00;0.00;;;;;21.59;41.18;100884.38;5051654;28;45352;-68
2022/12/25 07:47:25;;;;;;;;;0.00;0.00;;;;;21.59;41.40;100889.66;5051873;28;45495;-69
2022/12/25 07:49:50;;;;;;;;;0.00;0.00;;;;;21.60;41.16;100878.06;5053275;28;46144;-69
2022/12/25 07:52:16;;;;;;;;;0.33;0.33;;;;;21.59;41.56;100875.59;5055828;27;45329;-69
2022/12/25 07:54:41;;;;;;;;;0.00;0.00;;;;;21.58;41.36;100876.59;5048218;28;45277;-69
2022/12/25 07:57:07;;;;;;;;;2.33;0.67;;;;;21.55;41.34;100858.41;5034937;28;45354;-69
2022/12/25 07:59:32;;;;;;;;;0.00;0.00;;;;;21.58;41.69;100876.59;5034397;28;46260;-69
2022/12/25 08:01:57;;;;;;;;;1.00;1.00;;;;;21.58;41.18;100885.38;5034891;28;45475;-70
2022/12/25 08:04:22;;;;;;;;;0.00;0.00;;;;;21.58;41.22;100884.53;5054767;28;45463;-67
2022/12/25 08:06:48;;;;;;;;;1.00;1.00;;;;;21.48;41.41;100848.53;5054825;28;45313;-70
2022/12/25 08:09:14;;;;;;;;;1.00;0.00;;;;;21.58;41.18;100850.94;5054829;28;47599;-69
2022/12/25 08:11:45;;;;;;;;;0.00;0.00;;;;;21.50;41.29;100825.34;5054743;28;45382;-69
2022/12/25 08:14:10;;;;;;;;;0.00;0.00;;;;;21.57;41.30;100833.41;5054580;28;45406;-69
2022/12/25 08:16:40;;;;;;;;;0.00;0.00;;;;;21.50;41.41;100829.81;5054709;28;45424;-69
2022/12/25 08:19:05;;;;;;;;;0.00;0.00;;;;;21.51;41.78;100832.31;5037435;28;46017;-69
2022/12/25 08:21:31;;;;;;;;;1.00;1.00;;;;;21.57;41.18;100846.63;5054619;28;45271;-68
2022/12/25 08:23:56;;;;;;;;;0.00;0.00;;;;;21.50;41.65;100822.72;5054634;28;45364;-68
2022/12/25 08:26:22;;;;;;;;;0.00;0.00;;;;;21.57;41.17;100829.94;5054673;28;45387;-69
2022/12/25 08:28:48;;;;;;;;;0.00;0.00;;;;;21.55;41.42;100838.06;5036169;28;48177;-69
2022/12/25 08:31:25;;;;;;;;;0.00;0.00;;;;;21.57;41.26;100851.13;5054640;28;45344;-69
2022/12/25 08:33:53;;;;;;;;;0.00;0.00;;;;;21.56;41.36;100847.66;5054629;28;45387;-69
2022/12/25 08:36:19;;;;;;;;;0.00;0.00;;;;;21.56;41.34;100855.59;5054456;28;45451;-69
2022/12/25 08:38:45;;;;;;;;;0.00;0.00;;;;;21.56;41.44;100842.34;5054187;28;47207;-69
2022/12/25 08:41:13;;;;;;;;;1.00;1.00;;;;;21.56;41.79;100839.72;5054410;28;45422;-69
2022/12/25 08:43:39;;;;;;;;;0.00;0.00;;;;;21.56;41.64;100837.06;5054019;28;45245;-69
2022/12/25 08:46:04;;;;;;;;;0.00;0.00;;;;;21.57;41.33;100851.94;5054447;28;45502;-68
2022/12/25 08:48:30;;;;;;;;;0.00;0.00;;;;;21.56;41.77;100842.34;5054331;28;45413;-69
2022/12/25 08:50:56;;;;;;;;;0.00;0.00;;;;;21.57;41.26;100827.31;5054277;28;45387;-69
2022/12/25 08:53:22;;;;;;;;;0.00;0.00;;;;;21.58;41.20;100823.63;5054554;28;45381;-69
2022/12/25 08:55:48;;;;;;;;;0.00;0.00;;;;;21.55;41.39;100829.28;5038003;28;45409;-68
2022/12/25 08:58:13;;;;;;;;;0.00;0.00;;;;;21.56;41.64;100829.13;5016389;28;45990;-69
2022/12/25 09:00:39;;;;;;;;;2.00;0.00;;;;;21.55;41.36;100843.34;5033110;28;45470;-68
2022/12/25 09:03:05;;;;;;;;;0.00;0.00;;;;;21.59;41.58;100817.34;5043410;27;45425;-69
2022/12/25 09:05:34;;;;;;;;;0.00;0.00;;;;;21.58;41.55;100811.22;5054126;28;45573;-69
2022/12/25 09:07:59;;;;;;;;;1.00;0.00;;;;;21.50;41.21;100820.06;5036127;28;47219;-69
2022/12/25 09:10:24;;;;;;;;;0.00;0.00;;;;;21.59;41.63;100830.59;5053714;28;45397;-69
2022/12/25 09:12:50;;;;;;;;;0.00;0.00;;;;;21.59;41.21;100802.31;5054148;27;45339;-69
2022/12/25 09:15:15;;;;;;;;;0.00;0.00;;;;;21.60;41.64;100792.50;5054125;28;45295;-69
2022/12/25 09:17:40;;;;;;;;;0.33;0.33;;;;;21.59;41.32;100804.94;5053992;28;46290;-68
2022/12/25 09:20:06;;;;;;;;;0.00;0.00;;;;;21.60;41.67;100818.97;5054055;28;45381;-69
2022/12/25 09:22:32;;;;;;;;;0.00;0.00;;;;;21.57;41.12;100800.81;5054080;28;45403;-69
2022/12/25 09:24:58;;;;;;;;;0.00;0.00;;;;;21.48;41.17;100777.06;5053455;28;45392;-69
2022/12/25 09:27:23;;;;;;;;;0.00;0.00;;;;;21.59;41.26;100810.25;5053666;28;47216;-69
2022/12/25 09:29:49;;;;;;;;;0.50;0.50;;;;;21.59;41.25;100809.41;5053918;28;45407;-68
2022/12/25 09:32:14;;;;;;;;;2.00;0.00;;;;;21.49;41.30;100797.22;5054054;28;45413;-69
2022/12/25 09:34:39;;;;;;;;;1.00;1.00;;;;;21.59;41.64;100799.66;5053824;28;45504;-69
2022/12/25 09:37:05;;;;;;;;;1.00;0.00;;;;;21.59;41.49;100791.72;5053650;28;46273;-69
2022/12/25 09:39:30;;;;;;;;;0.00;0.00;;;;;21.58;41.56;100790.06;5053376;28;45316;-69
2022/12/25 09:42:00;;;;;;;;;1.00;0.00;;;;;21.58;41.29;100803.28;5054708;27;45672;-69
2022/12/25 09:44:48;;;;;;;;;0.00;0.00;;;;;21.59;41.68;100796.19;5053813;28;45344;-68
2022/12/25 09:47:19;;;;;;;;;0.00;0.00;;;;;21.58;41.52;100787.41;5053509;28;47092;-69
2022/12/25 09:49:56;;;;;;;;;0.67;0.00;;;;;21.59;41.41;100785.59;5053573;28;45427;-69
2022/12/25 09:52:42;;;;;;;;;0.00;0.00;;;;;21.58;41.29;100792.69;5054901;27;45324;-69
2022/12/25 09:55:29;;;;;;;;;0.00;0.00;;;;;21.59;41.63;100790.88;5042758;28;45276;-69
2022/12/25 09:57:57;;;;;;;;;0.00;0.00;;;;;21.58;41.25;100800.63;5033427;28;45497;-68
2022/12/25 10:00:27;;;;;;;;;0.00;0.00;;;;;21.59;41.21;100798.81;5033251;28;45444;-68
2022/12/25 10:03:20;;;;;;;;;0.00;0.00;;;;;21.59;41.40;100790.88;5040996;28;45329;-68
2022/12/25 10:05:52;;;;;;;;;1.00;1.00;;;;;21.60;41.18;100801.28;5053393;28;45378;-69
2022/12/25 10:08:28;;;;;;;;;1.00;1.00;;;;;21.55;41.51;100795.69;5052857;28;46184;-69
2022/12/25 10:11:18;;;;;;;;;0.00;0.00;;;;;21.61;41.24;100810.06;5053329;28;45354;-69
2022/12/25 10:13:46;;;;;;;;;0.00;0.00;;;;;21.59;41.68;100812.06;5053108;28;45342;-69
2022/12/25 10:16:36;;;;;;;;;0.00;0.00;;;;;21.60;41.55;100805.75;5053248;28;45432;-69
2022/12/25 10:19:42;;;;;;;;;0.00;0.00;;;;;21.60;41.63;100811.88;5053093;28;46384;-69
2022/12/25 10:22:15;;;;;;;;;0.00;0.00;;;;;21.61;41.43;100810.06;4951893;28;45428;-68
2022/12/25 10:24:53;;;;;;;;;0.00;0.00;;;;;21.55;41.68;100797.50;4951449;28;45333;-69
2022/12/25 10:27:39;;;;;;;;;0.00;0.00;;;;;21.60;41.11;100803.94;4952094;28;45632;-68
2022/12/25 10:30:14;;;;;;;;;0.00;0.00;;;;;21.60;41.28;100811.03;4951985;28;47331;-69
2022/12/25 10:32:40;;;;;;;;;0.00;0.00;;;;;21.60;41.33;100809.22;4951817;28;45392;-68
2022/12/25 10:35:11;;;;;;;;;0.33;0.00;;;;;21.60;41.34;100803.94;4951996;28;45433;-68
2022/12/25 10:37:36;;;;;;;;;0.00;0.00;;;;;21.60;41.66;100792.50;4951389;28;45312;-69
2022/12/25 10:40:11;;;;;;;;;0.00;0.00;;;;;21.60;41.66;100787.22;4951918;28;45420;-69
2022/12/25 10:42:42;;;;;;;;;1.00;0.00;;;;;21.60;41.23;100774.81;4951955;28;45389;-69
2022/12/25 10:45:08;;;;;;;;;0.00;0.00;;;;;21.60;41.66;100773.97;4951670;28;45428;-68
2022/12/25 10:47:38;;;;;;;;;0.00;0.00;;;;;21.56;41.57;100778.00;4951797;28;45406;-68
2022/12/25 10:50:23;;;;;;;;;0.00;0.00;;;;;21.56;41.31;100775.34;4951669;28;47148;-69
2022/12/25 10:52:58;;;;;;;;;0.00;0.00;;;;;21.59;41.25;100783.75;4951397;28;45369;-68
2022/12/25 10:55:24;;;;;;;;;1.00;1.00;;;;;21.56;41.39;100778.00;4939661;28;45428;-69
2022/12/25 10:57:49;;;;;;;;;1.00;0.00;;;;;21.59;41.41;100780.28;4975681;28;45518;-69
2022/12/25 11:00:23;;;;;;;;;0.00;0.00;;;;;21.59;41.67;100788.22;5012605;28;46156;-69
2022/12/25 11:02:49;;;;;;;;;0.00;0.00;;;;;21.57;41.26;100793.69;5027133;28;45442;-68
2022/12/25 11:05:27;;;;;;;;;0.00;0.00;;;;;21.58;41.38;100789.22;5052647;28;45307;-69
2022/12/25 11:07:53;;;;;;;;;0.00;0.00;;;;;21.55;41.63;100782.47;5052241;28;45583;-67
2022/12/25 11:10:25;;;;;;;;;2.00;0.00;;;;;21.58;41.56;100789.22;5052362;28;46229;-67
2022/12/25 11:12:51;;;;;;;;;0.00;0.00;;;;;21.51;41.50;100779.38;5052253;28;45298;-69
2022/12/25 11:15:38;;;;;;;;;1.50;0.00;;;;;21.58;41.51;100778.63;5052465;28;45258;-69
2022/12/25 11:18:25;;;;;;;;;0.00;0.00;;;;;21.56;41.72;100778.81;5052519;28;45309;-69
2022/12/25 11:20:59;;;;;;;;;0.00;0.00;;;;;21.58;41.12;100782.09;5051719;28;46193;-67
2022/12/25 11:23:26;;;;;;;;;0.00;0.00;;;;;21.58;41.65;100778.63;5052356;28;45419;-69
2022/12/25 11:26:02;;;;;;;;;0.00;0.00;;;;;21.57;41.31;100772.50;5054998;28;45349;-68
2022/12/25 11:28:29;;;;;;;;;0.00;0.00;;;;;21.57;41.37;100769.84;5055492;28;45461;-69
2022/12/25 11:31:07;;;;;;;;;0.00;0.00;;;;;21.57;41.44;100777.81;5055134;28;46268;-69
2022/12/25 11:33:39;;;;;;;;;0.67;0.33;;;;;21.56;41.39;100768.22;5055254;28;45337;-68
2022/12/25 11:36:20;;;;;;;;;1.00;0.00;;;;;21.58;41.48;100768.03;5054904;28;45372;-69
2022/12/25 11:38:46;;;;;;;;;0.00;0.00;;;;;21.58;41.64;100765.41;5055311;28;45364;-69
2022/12/25 11:41:12;;;;;;;;;0.00;0.00;;;;;21.51;41.09;100739.66;5055046;28;46179;-68
2022/12/25 11:43:45;;;;;;;;;0.00;0.00;;;;;21.49;41.47;100732.91;5055024;28;45450;-69
2022/12/25 11:46:17;;;;;;;;;0.00;0.00;;;;;21.57;41.62;100737.28;5055103;28;45334;-69
2022/12/25 11:48:48;;;;;;;;;0.00;0.00;;;;;21.56;41.77;100738.28;5055286;28;45288;-69
2022/12/25 11:51:15;;;;;;;;;0.00;0.00;;;;;21.49;41.95;100723.09;5054821;28;45443;-69
2022/12/25 11:53:46;;;;;;;;;0.00;0.00;;;;;21.56;41.30;100728.53;5054985;28;45542;-69
2022/12/25 11:56:16;;;;;;;;;0.67;0.00;;;;;21.51;41.55;100715.84;5035755;28;45328;-69
2022/12/25 11:58:50;;;;;;;;;0.00;0.00;;;;;21.56;41.68;100719.75;5034866;28;45580;-69
2022/12/25 12:01:34;;;;;;;;;1.33;1.00;;;;;21.56;41.29;100725.88;5034520;28;47258;-69
2022/12/25 12:04:01;;;;;;;;;0.00;0.00;;;;;21.56;41.37;100723.22;5051858;28;45360;-70
2022/12/25 12:06:40;;;;;;;;;0.33;0.33;;;;;21.56;41.31;100728.53;5054639;28;45412;-68
2022/12/25 12:09:36;;;;;;;;;0.00;0.00;;;;;21.57;41.76;100730.16;5054949;28;45313;-69
2022/12/25 12:12:10;;;;;;;;;1.00;1.00;;;;;21.57;41.29;100722.22;5054575;27;45498;-69
2022/12/25 12:15:10;;;;;;;;;1.00;1.00;;;;;21.58;41.78;100731.81;5054682;28;45698;-69
2022/12/25 12:17:35;;;;;;;;;0.00;0.00;;;;;21.59;41.72;100730.00;5054858;28;45232;-69
2022/12/25 12:20:11;;;;;;;;;0.00;0.00;;;;;21.59;41.78;100722.88;5054512;28;45421;-69
2022/12/25 12:22:37;;;;;;;;;1.67;0.67;;;;;21.59;41.65;100727.34;5054501;28;46508;-68
2022/12/25 12:25:06;;;;;;;;;0.00;0.00;;;;;21.60;41.24;100735.09;5054348;28;45296;-68
2022/12/25 12:27:39;;;;;;;;;2.00;1.00;;;;;21.57;41.68;100724.84;5054741;27;45297;-69
2022/12/25 12:30:20;;;;;;;;;0.33;0.33;;;;;21.59;41.84;100720.22;5054677;28;45403;-69
2022/12/25 12:32:54;;;;;;;;;0.00;0.00;;;;;21.57;41.66;100710.81;5054583;28;46303;-68
2022/12/25 12:35:35;;;;;;;;;0.67;0.67;;;;;21.56;41.39;100720.59;5035923;28;45370;-69
2022/12/25 12:38:05;;;;;;;;;1.00;1.00;;;;;21.61;41.65;100728.81;5054663;28;45352;-69
2022/12/25 12:40:43;;;;;;;;;0.33;0.33;;;;;21.61;41.43;100715.56;5054505;28;45517;-69
2022/12/25 12:43:27;;;;;;;;;0.00;0.00;;;;;21.62;41.49;100709.25;5054163;28;46086;-69
2022/12/25 12:45:59;;;;;;;;;2.00;2.00;;;;;21.62;41.91;100697.88;5054233;28;45317;-68
2022/12/25 12:48:27;;;;;;;;;1.00;1.00;;;;;21.60;41.28;100692.72;5054171;28;45420;-68
2022/12/25 12:51:09;;;;;;;;;2.00;0.33;;;;;21.62;41.55;100703.94;5054500;28;45570;-69
2022/12/25 12:53:37;;;;;;;;;1.00;1.00;;;;;21.62;41.68;100719.84;5054206;28;46264;-67
2022/12/25 12:56:10;;;;;;;;;0.00;0.00;;;;;21.60;41.44;100705.97;5036157;28;45387;-68
2022/12/25 12:58:39;;;;;;;;;0.00;0.00;;;;;21.61;41.80;100712.91;5034296;28;45373;-68
2022/12/25 13:01:22;;;;;;;;;1.00;1.00;;;;;21.61;41.73;100717.38;5034107;28;45388;-67
2022/12/25 13:04:03;;;;;;;;;0.00;0.00;;;;;21.60;41.32;100723.66;5048980;27;46150;-69
2022/12/25 13:06:42;;;;;;;;;1.00;1.00;;;;;21.55;41.24;100726.88;5054188;28;45432;-69
2022/12/25 13:09:44;;;;;;;;;0.00;0.00;;;;;21.60;41.79;100734.25;5054234;28;45286;-69
2022/12/25 13:12:11;;;;;;;;;2.00;0.33;;;;;21.60;41.62;100727.16;5054148;28;45349;-68
2022/12/25 13:14:37;;;;;;;;;0.67;0.67;;;;;21.59;41.83;100730.81;5053989;28;46047;-71